Time,TemperatureF,DewpointF,PressureIn,WindDirection,WindDirectionDegrees,WindSpeedMPH,WindSpeedGustMPH,Humidity,HourlyPrecipIn,Conditions,Clouds,dailyrainin,SoftwareType,DateUTC
2014-09-01 00:12:00,56.0,40.0,-100.00,West,280,2.0,4.0,54,-99.99,,,0.00,,2014-09-01 06:12:00,
2014-09-01 00:32:00,56.0,40.0,-100.00,West,280,2.0,4.0,54,-99.99,,,0.00,,2014-09-01 06:32:00,
2014-09-01 02:12:00,57.0,39.0,-100.00,SW,225,11.0,18.0,51,-99.99,,,0.00,,2014-09-01 08:12:00,
2014-09-01 02:52:00,53.0,44.0,-100.00,WNW,300,6.0,7.0,71,-99.99,,,0.00,,2014-09-01 08:52:00,
2014-09-01 03:12:00,56.0,36.0,-100.00,NNW,330,12.0,21.0,46,-99.99,,,0.00,,2014-09-01 09:12:00,
2014-09-01 03:54:00,53.0,44.0,-100.00,NW,310,34.0,128.0,73,-99.99,,,0.00,,2014-09-01 09:54:00,
2014-09-01 04:13:00,51.0,44.0,-100.00,West,280,4.0,45.0,77,-99.99,,,0.00,,2014-09-01 10:13:00,
2014-09-01 04:54:00,53.0,43.0,-100.00,South,190,11.0,16.0,68,-99.99,,,0.00,,2014-09-01 10:54:00,
2014-09-01 05:13:00,52.0,40.0,-100.00,South,190,2.0,7.0,62,-99.99,,,0.00,,2014-09-01 11:13:00,
2014-09-01 05:52:00,50.0,44.0,-100.00,NW,325,4.0,52.0,81,-99.99,,,0.00,,2014-09-01 11:52:00,
2014-09-01 06:12:00,50.0,46.0,-100.00,NNW,330,110.0,147.0,84,-99.99,,,0.00,,2014-09-01 12:12:00,
2014-09-01 06:53:00,53.0,44.0,-100.00,NNW,335,5.0,12.0,70,-99.99,,,0.00,,2014-09-01 12:53:00,
2014-09-01 07:11:00,51.0,48.0,-100.00,NW,310,21.0,44.0,89,-99.99,,,0.00,,2014-09-01 13:11:00,
2014-09-01 07:52:00,50.0,47.0,-100.00,NNW,340,10.0,13.0,90,-99.99,,,0.00,,2014-09-01 13:52:00,
2014-09-01 08:12:00,49.0,47.0,-100.00,NNW,335,9.0,11.0,93,-99.99,,,0.00,,2014-09-01 14:12:00,
2014-09-01 08:52:00,48.0,47.0,-100.00,WNW,290,14.0,67.0,96,-99.99,,,0.00,,2014-09-01 14:52:00,
2014-09-01 09:12:00,48.0,47.0,-100.00,West,260,3.0,7.0,99,-99.99,,,0.00,,2014-09-01 15:12:00,
2014-09-01 09:54:00,51.0,47.0,-100.00,West,265,2.0,5.0,85,-99.99,,,0.00,,2014-09-01 15:54:00,
2014-09-01 11:13:00,51.0,46.0,-100.00,NNW,345,5.0,8.0,81,-99.99,,,0.00,,2014-09-01 17:13:00,
2014-09-01 12:12:00,50.0,47.0,-100.00,WSW,240,7.0,72.0,88,-99.99,,,0.00,,2014-09-01 18:12:00,
2014-09-01 12:52:00,55.0,46.0,-100.00,SSW,200,7.0,12.0,73,-99.99,,,0.00,,2014-09-01 18:52:00,
2014-09-01 13:53:00,60.0,42.0,-100.00,NW,315,8.0,12.0,51,-99.99,,,0.00,,2014-09-01 19:53:00,
2014-09-01 14:12:00,62.0,41.0,-100.00,NNW,345,17.0,25.0,46,-99.99,,,0.00,,2014-09-01 20:12:00,
2014-09-01 14:52:00,62.0,39.0,-100.00,NNW,330,17.0,22.0,42,-99.99,,,0.00,,2014-09-01 20:52:00,
2014-09-01 15:12:00,63.0,39.0,-100.00,NNW,335,15.0,22.0,41,-99.99,,,0.00,,2014-09-01 21:12:00,
2014-09-01 17:53:00,65.0,37.0,-100.00,NW,325,14.0,17.0,36,-99.99,,,0.00,,2014-09-01 23:53:00,
2014-09-01 18:12:00,65.0,37.0,-100.00,NNW,335,9.0,20.0,36,-99.99,,,0.00,,2014-09-02 00:12:00,
2014-09-01 18:52:00,65.0,38.0,-100.00,NNW,345,8.0,11.0,37,-99.99,,,0.00,,2014-09-02 00:52:00,
2014-09-01 19:12:00,64.0,39.0,-100.00,NW,320,7.0,11.0,39,-99.99,,,0.00,,2014-09-02 01:12:00,
2014-09-01 19:52:00,63.0,38.0,-100.00,North,0,3.0,6.0,40,-99.99,,,0.00,,2014-09-02 01:52:00,
2014-09-01 20:12:00,62.0,38.0,-100.00,North,355,1.0,2.0,41,-99.99,,,0.00,,2014-09-02 02:12:00,
2014-09-01 21:54:00,58.0,40.0,-100.00,SSE,155,3.0,4.0,51,-99.99,,,0.00,,2014-09-02 03:54:00,